createdAt,value
2018-03-27T00:00:08.922Z,69.97
2018-03-27T00:01:07.934Z,70.80
2018-03-27T00:02:07.784Z,71.81
2018-03-27T00:03:08.345Z,71.80
2018-03-27T00:04:07.810Z,70.87
2018-03-27T00:05:07.718Z,69.90
2018-03-27T00:06:07.814Z,68.67
2018-03-27T00:07:07.834Z,68.35
2018-03-27T00:08:07.742Z,68.25
2018-03-27T00:09:07.839Z,67.19
2018-03-27T00:10:07.867Z,66.74
2018-03-27T00:11:07.846Z,66.72
2018-03-27T00:12:07.750Z,66.34
2018-03-27T00:13:07.874Z,66.67
2018-03-27T00:14:07.879Z,67.01
2018-03-27T00:15:07.886Z,67.09
2018-03-27T00:16:07.782Z,67.28
2018-03-27T00:17:07.798Z,68.07
2018-03-27T00:18:07.799Z,66.90
2018-03-27T00:19:07.806Z,65.47
2018-03-27T00:20:07.825Z,65.46
2018-03-27T00:21:07.812Z,67.69
2018-03-27T00:22:07.830Z,66.72
2018-03-27T00:23:07.850Z,66.27
2018-03-27T00:24:07.837Z,66.62
2018-03-27T00:25:07.851Z,66.60
2018-03-27T00:26:07.859Z,65.42
2018-03-27T00:27:07.857Z,65.14
2018-03-27T00:28:07.962Z,64.81
2018-03-27T00:29:07.878Z,64.38
2018-03-27T00:30:07.881Z,64.71
2018-03-27T00:31:07.814Z,65.41
2018-03-27T00:32:07.798Z,66.63
2018-03-27T00:33:07.854Z,66.49
2018-03-27T00:34:07.810Z,66.08
2018-03-27T00:35:07.818Z,66.22
2018-03-27T00:36:07.833Z,66.38
2018-03-27T00:37:07.838Z,66.59
2018-03-27T00:38:07.837Z,66.82
2018-03-27T00:39:07.854Z,67.88
2018-03-27T00:40:07.859Z,68.07
2018-03-27T00:41:07.915Z,67.74
2018-03-27T00:42:07.879Z,67.60
2018-03-27T00:43:07.874Z,67.83
2018-03-27T00:44:07.886Z,67.69
2018-03-27T00:45:07.931Z,67.33
2018-03-27T00:46:07.698Z,67.25
2018-03-27T00:47:07.801Z,67.07
2018-03-27T00:48:07.808Z,67.42
2018-03-27T00:49:07.825Z,66.84
2018-03-27T00:50:07.839Z,67.70
2018-03-27T00:51:07.835Z,68.61
2018-03-27T00:52:07.844Z,68.61
2018-03-27T00:53:07.851Z,68.93
2018-03-27T00:54:07.854Z,69.64
2018-03-27T00:55:07.865Z,69.97
2018-03-27T00:56:07.873Z,71.12
2018-03-27T00:57:07.877Z,70.64
2018-03-27T00:58:07.891Z,70.93
2018-03-27T00:59:07.889Z,71.19
2018-03-27T01:00:09.037Z,71.63
2018-03-27T01:01:07.904Z,72.21
2018-03-27T01:02:07.877Z,72.79
2018-03-27T01:03:07.814Z,73.33
2018-03-27T01:04:07.826Z,73.89
2018-03-27T01:05:07.825Z,74.36
2018-03-27T01:06:07.873Z,75.01
2018-03-27T01:07:07.845Z,75.41
2018-03-27T01:08:07.857Z,75.73
2018-03-27T01:09:07.857Z,75.97
2018-03-27T01:10:07.873Z,76.05
2018-03-27T01:11:07.760Z,76.37
2018-03-27T01:12:10.511Z,76.44
2018-03-27T01:13:07.788Z,76.78
2018-03-27T01:14:07.900Z,76.58
2018-03-27T01:15:07.811Z,76.54
2018-03-27T01:16:07.815Z,76.20
2018-03-27T01:17:07.817Z,76.27
2018-03-27T01:18:07.927Z,75.30
2018-03-27T01:19:07.830Z,75.20
2018-03-27T01:20:07.842Z,75.30
2018-03-27T01:21:07.853Z,75.21
2018-03-27T01:22:07.859Z,75.00
2018-03-27T01:23:07.875Z,74.73
2018-03-27T01:24:07.874Z,74.46
2018-03-27T01:25:07.877Z,74.32
2018-03-27T01:26:07.784Z,74.37
2018-03-27T01:27:07.885Z,74.22
2018-03-27T01:28:07.897Z,74.25
2018-03-27T01:29:20.493Z,73.30
2018-03-27T01:30:20.495Z,73.37
2018-03-27T01:31:21.052Z,73.64
2018-03-27T01:32:25.516Z,73.91
2018-03-27T01:33:16.987Z,73.69
2018-03-27T01:34:07.848Z,73.40
2018-03-27T01:35:07.839Z,73.19
2018-03-27T01:36:07.754Z,72.78
2018-03-27T01:37:10.831Z,73.58
2018-03-27T01:38:07.865Z,73.90
2018-03-27T01:39:07.765Z,73.25
2018-03-27T01:40:07.885Z,72.67
2018-03-27T01:41:07.849Z,72.19
2018-03-27T01:42:07.899Z,72.29
2018-03-27T01:43:07.920Z,72.26
2018-03-27T01:44:10.474Z,72.37
2018-03-27T01:45:07.917Z,72.93
2018-03-27T01:46:07.937Z,74.27
2018-03-27T01:47:07.834Z,74.35
2018-03-27T01:48:07.939Z,74.59
2018-03-27T01:49:10.861Z,74.74
2018-03-27T01:50:07.863Z,75.05
2018-03-27T01:51:10.327Z,75.23
2018-03-27T01:52:07.866Z,75.33
2018-03-27T01:53:07.873Z,75.60
2018-03-27T01:54:07.886Z,75.73
2018-03-27T01:55:07.898Z,75.89
2018-03-27T01:56:07.906Z,75.88
2018-03-27T01:57:07.904Z,75.93
2018-03-27T01:58:07.922Z,75.88
2018-03-27T01:59:07.925Z,75.75
2018-03-27T02:00:09.063Z,75.68
2018-03-27T02:01:07.826Z,75.67
2018-03-27T02:02:07.837Z,75.60
2018-03-27T02:03:07.944Z,75.52
2018-03-27T02:04:07.850Z,75.50
2018-03-27T02:05:07.883Z,75.47
2018-03-27T02:06:10.417Z,75.62
2018-03-27T02:07:07.869Z,75.74
2018-03-27T02:08:07.886Z,75.73
2018-03-27T02:09:07.889Z,75.70
2018-03-27T02:10:07.892Z,75.54
2018-03-27T02:12:28.418Z,75.30
2018-03-27T02:13:28.397Z,75.30
2018-03-27T02:14:28.410Z,75.37
2018-03-27T02:15:28.411Z,75.54
2018-03-27T02:16:28.431Z,75.77
2018-03-27T02:17:28.428Z,75.89
2018-03-27T02:18:28.434Z,76.01
2018-03-27T02:19:28.342Z,76.17
2018-03-27T02:20:28.353Z,76.02
2018-03-27T02:21:28.350Z,76.18
2018-03-27T02:22:28.364Z,76.37
2018-03-27T02:23:28.478Z,76.59
2018-03-27T02:24:28.369Z,76.57
2018-03-27T02:25:28.381Z,76.56
2018-03-27T02:26:28.395Z,76.53
2018-03-27T02:27:28.404Z,76.77
2018-03-27T02:28:28.412Z,76.88
2018-03-27T02:29:30.834Z,77.00
2018-03-27T02:30:28.418Z,77.16
2018-03-27T02:31:28.435Z,77.32
2018-03-27T02:32:28.326Z,77.44
2018-03-27T02:33:28.439Z,77.50
2018-03-27T02:34:28.342Z,77.57
2018-03-27T02:35:28.468Z,77.53
2018-03-27T02:36:28.455Z,77.57
2018-03-27T02:37:28.266Z,77.62
2018-03-27T02:38:28.388Z,77.61
2018-03-27T02:39:28.382Z,77.80
2018-03-27T02:40:28.387Z,77.92
2018-03-27T02:41:29.720Z,77.99
2018-03-27T02:42:28.434Z,77.99
2018-03-27T02:43:28.406Z,77.94
2018-03-27T02:44:28.422Z,78.01
2018-03-27T02:45:28.443Z,78.12
2018-03-27T02:46:28.494Z,78.12
2018-03-27T02:47:28.443Z,78.21
2018-03-27T02:48:28.460Z,78.20
2018-03-27T02:49:28.460Z,78.33
2018-03-27T02:50:28.459Z,78.48
2018-03-27T02:51:28.290Z,78.56
2018-03-27T02:52:28.385Z,78.52
2018-03-27T02:53:28.392Z,78.57
2018-03-27T02:54:28.520Z,78.59
2018-03-27T02:55:28.409Z,78.63
2018-03-27T02:56:28.413Z,78.70
2018-03-27T02:57:28.417Z,78.61
2018-03-27T02:58:28.428Z,78.57
2018-03-27T02:59:28.430Z,78.62
2018-03-27T03:00:28.440Z,78.69
2018-03-27T03:01:28.454Z,78.73
2018-03-27T03:02:28.446Z,78.82
2018-03-27T03:03:28.350Z,78.79
2018-03-27T03:04:28.470Z,78.88
2018-03-27T03:05:28.479Z,78.86
2018-03-27T03:06:28.472Z,78.96
2018-03-27T03:07:28.382Z,78.88
2018-03-27T03:08:28.399Z,78.83
2018-03-27T03:09:28.390Z,78.85
2018-03-27T03:10:28.293Z,78.82
2018-03-27T03:11:29.650Z,78.77
2018-03-27T03:12:28.413Z,78.78
2018-03-27T03:13:28.422Z,78.82
2018-03-27T03:14:28.438Z,78.90
2018-03-27T03:15:28.433Z,78.86
2018-03-27T03:16:31.630Z,78.82
2018-03-27T03:17:28.458Z,78.95
2018-03-27T03:18:28.459Z,79.23
2018-03-27T03:19:28.466Z,79.38
2018-03-27T03:20:28.514Z,79.39
2018-03-27T03:21:28.478Z,79.44
2018-03-27T03:22:28.382Z,79.54
2018-03-27T03:23:28.398Z,79.55
2018-03-27T03:24:28.402Z,79.55
2018-03-27T03:25:28.401Z,79.57
2018-03-27T03:26:28.414Z,79.82
2018-03-27T03:27:28.425Z,79.94
2018-03-27T03:28:28.438Z,79.91
2018-03-27T03:29:28.434Z,79.97
2018-03-27T03:30:28.455Z,80.19
2018-03-27T03:31:28.451Z,80.38
2018-03-27T03:32:28.458Z,80.62
2018-03-27T03:33:28.465Z,80.63
2018-03-27T03:34:28.474Z,80.54
2018-03-27T03:35:28.477Z,80.57
2018-03-27T03:36:28.493Z,80.67
2018-03-27T03:37:28.403Z,80.88
2018-03-27T03:38:29.014Z,80.91
2018-03-27T03:39:28.405Z,81.02
2018-03-27T03:40:28.517Z,81.02
2018-03-27T03:41:28.416Z,81.01
2018-03-27T03:42:28.336Z,80.84
2018-03-27T03:43:31.206Z,80.79
2018-03-27T03:44:28.438Z,80.79
2018-03-27T03:45:28.449Z,80.84
2018-03-27T03:46:28.456Z,80.97
2018-03-27T03:47:28.466Z,81.04
2018-03-27T03:48:28.470Z,81.14
2018-03-27T03:49:28.485Z,81.14
2018-03-27T03:50:28.491Z,81.10
2018-03-27T03:51:28.493Z,81.00
2018-03-27T03:52:28.402Z,81.03
2018-03-27T03:53:28.416Z,81.13
2018-03-27T03:54:28.410Z,81.07
2018-03-27T03:55:28.417Z,80.89
2018-03-27T03:56:28.443Z,80.81
2018-03-27T03:57:28.429Z,80.87
2018-03-27T03:58:28.447Z,80.71
2018-03-27T03:59:28.449Z,80.78
2018-03-27T04:00:29.535Z,80.83
2018-03-27T04:01:28.465Z,80.76
2018-03-27T04:02:28.486Z,80.67
2018-03-27T04:03:28.478Z,80.66
2018-03-27T04:04:28.485Z,80.61
2018-03-27T04:05:28.498Z,80.62
2018-03-27T04:06:28.509Z,80.62
2018-03-27T04:07:28.411Z,80.58
2018-03-27T04:08:28.409Z,80.71
2018-03-27T04:09:28.421Z,80.76
2018-03-27T04:10:29.041Z,80.84
2018-03-27T04:11:29.670Z,80.84
2018-03-27T04:12:28.451Z,80.85
2018-03-27T04:13:28.455Z,80.81
2018-03-27T04:14:28.462Z,80.86
2018-03-27T04:15:28.461Z,80.88
2018-03-27T04:16:28.482Z,80.97
2018-03-27T04:17:28.486Z,80.97
2018-03-27T04:18:28.389Z,81.06
2018-03-27T04:19:28.489Z,81.01
2018-03-27T04:20:28.501Z,80.95
2018-03-27T04:21:28.518Z,80.96
2018-03-27T04:22:28.509Z,80.95
2018-03-27T04:23:28.426Z,80.88
2018-03-27T04:24:28.425Z,80.89
2018-03-27T04:25:28.443Z,80.84
2018-03-27T04:26:28.365Z,80.77
2018-03-27T04:27:28.447Z,80.78
2018-03-27T04:28:28.473Z,80.76
2018-03-27T04:29:31.102Z,80.75
2018-03-27T04:30:28.473Z,80.75
2018-03-27T04:31:28.496Z,80.62
2018-03-27T04:32:28.483Z,80.59
2018-03-27T04:33:28.526Z,80.51
2018-03-27T04:34:28.515Z,80.49
2018-03-27T04:35:28.506Z,80.35
2018-03-27T04:36:28.515Z,80.25
2018-03-27T04:37:28.526Z,80.09
2018-03-27T04:38:28.439Z,80.03
2018-03-27T04:39:28.428Z,79.93
2018-03-27T04:40:28.332Z,79.78
2018-03-27T04:41:28.449Z,79.79
2018-03-27T04:42:28.355Z,79.57
2018-03-27T04:43:28.467Z,79.46
2018-03-27T04:44:28.474Z,79.34
2018-03-27T04:45:28.555Z,79.39
2018-03-27T04:46:28.487Z,79.60
2018-03-27T04:47:28.494Z,79.79
2018-03-27T04:48:28.503Z,79.97
2018-03-27T04:49:28.506Z,80.04
2018-03-27T04:50:28.518Z,80.19
2018-03-27T04:51:28.523Z,80.35
2018-03-27T04:52:28.567Z,80.50
2018-03-27T04:53:28.433Z,80.62
2018-03-27T04:54:28.436Z,80.60
2018-03-27T04:55:28.354Z,80.56
2018-03-27T04:56:28.454Z,80.46
2018-03-27T04:57:31.391Z,80.23
2018-03-27T04:58:28.463Z,80.19
2018-03-27T04:59:28.482Z,80.25
2018-03-27T05:00:28.498Z,80.33
2018-03-27T05:01:28.497Z,80.55
2018-03-27T05:02:28.905Z,80.99
2018-03-27T05:03:28.505Z,81.12
2018-03-27T05:04:28.509Z,81.46
2018-03-27T05:05:28.522Z,81.93
2018-03-27T05:06:28.529Z,82.34
2018-03-27T05:07:28.542Z,82.65
2018-03-27T05:08:28.541Z,83.03
2018-03-27T05:09:28.445Z,83.19
2018-03-27T05:10:28.459Z,83.21
2018-03-27T05:11:29.690Z,83.24
2018-03-27T05:12:28.472Z,83.16
2018-03-27T05:13:29.714Z,83.27
2018-03-27T05:14:28.484Z,83.52
2018-03-27T05:15:28.494Z,83.71
2018-03-27T05:16:28.511Z,83.94
2018-03-27T05:17:28.495Z,84.11
2018-03-27T05:18:28.518Z,84.24
2018-03-27T05:19:28.524Z,84.28
2018-03-27T05:20:31.125Z,84.30
2018-03-27T05:21:37.266Z,84.27
2018-03-27T05:22:28.548Z,84.19
2018-03-27T05:23:28.466Z,84.14
2018-03-27T05:24:28.449Z,84.07
2018-03-27T05:25:28.366Z,83.99
2018-03-27T05:26:28.404Z,83.90
2018-03-27T05:27:28.470Z,83.78
2018-03-27T05:28:28.372Z,83.63
2018-03-27T05:29:28.501Z,83.50
2018-03-27T05:30:28.393Z,83.47
2018-03-27T05:31:28.402Z,83.44
2018-03-27T05:32:28.714Z,83.21
2018-03-27T05:33:28.421Z,83.05
2018-03-27T05:34:28.525Z,83.00
2018-03-27T05:35:28.548Z,82.96
2018-03-27T05:36:28.543Z,82.97
2018-03-27T05:37:28.575Z,82.94
2018-03-27T05:38:28.559Z,82.93
2018-03-27T05:39:28.462Z,82.84
2018-03-27T05:40:28.466Z,82.76
2018-03-27T05:41:28.749Z,82.60
2018-03-27T05:42:28.490Z,82.55
2018-03-27T05:43:28.490Z,82.49
2018-03-27T05:44:28.495Z,82.38
2018-03-27T05:45:28.515Z,82.22
2018-03-27T05:46:28.521Z,82.02
2018-03-27T05:47:28.542Z,81.84
2018-03-27T05:48:28.529Z,81.65
2018-03-27T05:49:28.533Z,81.47
2018-03-27T05:50:28.539Z,81.38
2018-03-27T05:51:28.553Z,81.24
2018-03-27T05:52:28.546Z,81.16
2018-03-27T05:53:28.556Z,80.98
2018-03-27T05:54:28.466Z,80.83
2018-03-27T05:55:28.481Z,80.69
2018-03-27T05:56:28.482Z,80.48
2018-03-27T05:57:28.515Z,80.38
2018-03-27T05:58:28.493Z,80.34
2018-03-27T05:59:30.885Z,80.22
2018-03-27T06:00:28.512Z,80.11
2018-03-27T06:01:28.517Z,80.10
2018-03-27T06:02:28.514Z,79.99
2018-03-27T06:03:28.531Z,79.71
2018-03-27T06:04:28.546Z,79.61
2018-03-27T06:05:28.540Z,79.35
2018-03-27T06:06:28.549Z,79.54
2018-03-27T06:07:28.562Z,79.64
2018-03-27T06:08:28.565Z,79.39
2018-03-27T06:09:28.489Z,79.33
2018-03-27T06:10:28.478Z,78.98
2018-03-27T06:11:29.714Z,78.69
2018-03-27T06:12:28.490Z,78.54
2018-03-27T06:13:28.501Z,78.54
2018-03-27T06:14:28.510Z,78.48
2018-03-27T06:15:28.514Z,78.58
2018-03-27T06:16:28.521Z,78.61
2018-03-27T06:17:28.525Z,78.42
2018-03-27T06:18:28.538Z,78.23
2018-03-27T06:19:28.542Z,77.86
2018-03-27T06:20:28.552Z,77.37
2018-03-27T06:21:28.559Z,77.26
2018-03-27T06:22:28.566Z,77.12
2018-03-27T06:23:28.574Z,76.83
2018-03-27T06:24:28.494Z,76.69
2018-03-27T06:25:28.480Z,76.64
2018-03-27T06:26:28.490Z,76.34
2018-03-27T06:27:28.509Z,76.10
2018-03-27T06:28:28.504Z,76.10
2018-03-27T06:29:28.522Z,76.19
2018-03-27T06:30:28.524Z,76.27
2018-03-27T06:31:28.526Z,76.10
2018-03-27T06:32:28.533Z,75.48
2018-03-27T06:33:28.545Z,75.35
2018-03-27T06:34:28.549Z,75.29
2018-03-27T06:35:28.563Z,75.19
2018-03-27T06:36:28.566Z,75.04
2018-03-27T06:37:28.574Z,74.42
2018-03-27T06:38:28.582Z,74.00
2018-03-27T06:39:28.487Z,73.93
2018-03-27T06:40:28.497Z,73.95
2018-03-27T06:41:28.506Z,73.89
2018-03-27T06:42:28.507Z,73.93
2018-03-27T06:43:28.530Z,73.80
2018-03-27T06:44:28.514Z,73.39
2018-03-27T06:45:28.527Z,72.93
2018-03-27T06:46:28.547Z,72.83
2018-03-27T06:47:28.551Z,71.78
2018-03-27T06:48:28.550Z,71.31
2018-03-27T06:49:31.718Z,71.90
2018-03-27T06:50:29.577Z,72.13
2018-03-27T06:51:29.847Z,72.24
2018-03-27T06:52:29.869Z,71.80
2018-03-27T06:53:30.010Z,72.04
2018-03-27T06:54:29.848Z,71.40
2018-03-27T06:55:29.890Z,70.79
2018-03-27T06:56:28.817Z,68.74
2018-03-27T06:57:28.515Z,68.81
2018-03-27T06:58:28.134Z,68.61
2018-03-27T06:59:28.114Z,67.41
2018-03-27T07:00:28.137Z,66.69
2018-03-27T07:01:28.546Z,66.11
2018-03-27T07:02:28.555Z,65.16
2018-03-27T07:03:28.566Z,64.54
2018-03-27T07:04:28.562Z,63.46
2018-03-27T07:05:28.641Z,62.96
2018-03-27T07:06:28.580Z,62.78
2018-03-27T07:07:28.607Z,62.20
2018-03-27T07:08:28.594Z,59.48
2018-03-27T07:09:28.648Z,59.84
2018-03-27T07:10:28.538Z,60.48
2018-03-27T07:11:29.755Z,60.01
2018-03-27T07:12:28.539Z,60.14
2018-03-27T07:13:28.534Z,60.87
2018-03-27T07:14:28.568Z,62.09
2018-03-27T07:15:28.486Z,62.06
2018-03-27T07:16:28.549Z,62.90
2018-03-27T07:17:28.486Z,61.67
2018-03-27T07:18:28.573Z,62.40
2018-03-27T07:19:28.579Z,62.17
2018-03-27T07:20:28.606Z,62.91
2018-03-27T07:21:28.677Z,63.34
2018-03-27T07:22:28.586Z,63.06
2018-03-27T07:23:28.490Z,63.88
2018-03-27T07:24:28.518Z,63.32
2018-03-27T07:25:28.615Z,62.84
2018-03-27T07:26:31.494Z,64.20
2018-03-27T07:27:28.524Z,63.16
2018-03-27T07:28:28.546Z,64.19
2018-03-27T07:29:28.539Z,64.63
2018-03-27T07:30:28.555Z,63.17
2018-03-27T07:31:28.573Z,63.31
2018-03-27T07:32:28.478Z,63.90
2018-03-27T07:33:28.574Z,62.55
2018-03-27T07:34:28.681Z,63.97
2018-03-27T07:35:28.591Z,63.34
2018-03-27T07:36:31.226Z,63.77
2018-03-27T07:37:28.601Z,64.28
2018-03-27T07:38:28.611Z,62.72
2018-03-27T07:39:28.608Z,63.05
2018-03-27T07:40:28.519Z,63.58
2018-03-27T07:41:28.536Z,63.64
2018-03-27T07:42:28.528Z,62.65
2018-03-27T07:43:28.547Z,63.23
2018-03-27T07:44:28.554Z,62.18
2018-03-27T07:45:28.564Z,62.47
2018-03-27T07:46:28.562Z,64.02
2018-03-27T07:47:28.573Z,63.32
2018-03-27T07:48:28.645Z,62.49
2018-03-27T07:49:28.607Z,63.83
2018-03-27T07:50:28.597Z,62.47
2018-03-27T07:51:28.593Z,63.79
2018-03-27T07:52:28.611Z,62.93
2018-03-27T07:53:28.614Z,62.84
2018-03-27T07:54:28.621Z,63.56
2018-03-27T07:55:28.535Z,63.67
2018-03-27T07:56:28.651Z,64.45
2018-03-27T07:57:28.542Z,63.25
2018-03-27T07:58:28.557Z,63.04
2018-03-27T07:59:28.455Z,61.89
2018-03-27T08:00:28.568Z,62.90
2018-03-27T08:01:28.584Z,60.92
2018-03-27T08:02:28.578Z,60.51
2018-03-27T08:03:28.687Z,59.92
2018-03-27T08:04:28.591Z,58.22
2018-03-27T08:05:28.493Z,58.03
2018-03-27T08:06:28.605Z,59.23
2018-03-27T08:07:28.612Z,58.80
2018-03-27T08:08:28.638Z,59.08
2018-03-27T08:09:28.631Z,60.97
2018-03-27T08:10:28.535Z,58.93
2018-03-27T08:11:29.770Z,58.13
2018-03-27T08:12:31.053Z,58.01
2018-03-27T08:13:28.560Z,57.05
2018-03-27T08:14:28.553Z,57.58
2018-03-27T08:15:28.486Z,56.50
2018-03-27T08:16:28.480Z,55.92
2018-03-27T08:17:28.624Z,56.39
2018-03-27T08:18:28.706Z,56.73
2018-03-27T08:19:28.606Z,56.37
2018-03-27T08:20:28.612Z,57.74
2018-03-27T08:21:28.610Z,56.30
2018-03-27T08:22:28.617Z,54.00
2018-03-27T08:23:28.635Z,53.36
2018-03-27T08:24:28.682Z,54.64
2018-03-27T08:25:28.652Z,56.71
2018-03-27T08:26:28.444Z,54.77
2018-03-27T08:27:29.918Z,53.28
2018-03-27T08:28:28.558Z,54.95
2018-03-27T08:29:28.580Z,55.65
2018-03-27T08:30:28.589Z,55.54
2018-03-27T08:31:28.577Z,55.37
2018-03-27T08:32:28.604Z,53.57
2018-03-27T08:33:28.588Z,52.32
2018-03-27T08:34:28.605Z,54.45
2018-03-27T08:35:28.406Z,53.14
2018-03-27T08:36:28.520Z,55.00
2018-03-27T08:37:28.522Z,56.85
2018-03-27T08:38:28.448Z,53.53
2018-03-27T08:39:28.541Z,53.01
2018-03-27T08:40:28.658Z,56.44
2018-03-27T08:41:28.554Z,52.65
2018-03-27T08:42:28.453Z,51.71
2018-03-27T08:43:28.488Z,51.61
2018-03-27T08:44:28.596Z,53.56
2018-03-27T08:45:28.599Z,51.69
2018-03-27T08:46:28.591Z,52.51
2018-03-27T08:47:28.597Z,51.63
2018-03-27T08:48:28.610Z,52.55
2018-03-27T08:49:28.638Z,50.79
2018-03-27T08:50:28.619Z,51.48
2018-03-27T08:51:28.637Z,52.68
2018-03-27T08:52:28.635Z,52.62
2018-03-27T08:53:28.741Z,50.82
2018-03-27T08:54:28.661Z,50.80
2018-03-27T08:55:28.670Z,49.15
2018-03-27T08:56:29.473Z,56.40
2018-03-27T08:57:28.563Z,51.29
2018-03-27T08:58:28.586Z,51.97
2018-03-27T08:59:28.573Z,51.24
2018-03-27T09:00:31.266Z,49.15
2018-03-27T09:01:28.610Z,50.36
2018-03-27T09:02:28.592Z,51.85
2018-03-27T09:03:28.614Z,51.36
2018-03-27T09:04:28.626Z,52.33
2018-03-27T09:05:28.525Z,50.58
2018-03-27T09:06:28.627Z,50.97
2018-03-27T09:07:28.646Z,51.77
2018-03-27T09:08:31.508Z,52.78
2018-03-27T09:09:28.650Z,51.27
2018-03-27T09:10:28.648Z,50.15
2018-03-27T09:11:29.805Z,50.33
2018-03-27T09:12:28.569Z,48.55
2018-03-27T09:13:28.578Z,46.59
2018-03-27T09:14:28.594Z,47.66
2018-03-27T09:15:28.609Z,48.51
2018-03-27T09:16:28.605Z,47.39
2018-03-27T09:17:28.610Z,47.43
2018-03-27T09:18:28.606Z,49.62
2018-03-27T09:19:28.616Z,49.38
2018-03-27T09:20:28.629Z,49.45
2018-03-27T09:21:28.658Z,49.05
2018-03-27T09:22:28.679Z,49.57
2018-03-27T09:23:28.663Z,50.46
2018-03-27T09:24:28.663Z,50.87
2018-03-27T09:25:28.668Z,50.71
2018-03-27T09:26:31.293Z,49.72
2018-03-27T09:27:28.577Z,49.74
2018-03-27T09:28:28.580Z,49.60
2018-03-27T09:29:28.595Z,49.69
2018-03-27T09:30:28.607Z,51.74
2018-03-27T09:31:28.606Z,48.15
2018-03-27T09:32:28.623Z,50.04
2018-03-27T09:33:28.621Z,52.47
2018-03-27T09:34:28.629Z,51.29
2018-03-27T09:35:28.634Z,50.82
2018-03-27T09:36:28.654Z,54.32
2018-03-27T09:37:28.650Z,50.05
2018-03-27T09:38:28.662Z,51.88
2018-03-27T09:39:28.670Z,51.15
2018-03-27T09:40:28.682Z,50.65
2018-03-27T09:41:28.678Z,49.69
2018-03-27T09:42:28.694Z,50.36
2018-03-27T09:43:28.589Z,50.67
2018-03-27T09:44:28.595Z,47.68
2018-03-27T09:45:28.625Z,47.01
2018-03-27T09:46:28.624Z,43.55
2018-03-27T09:47:28.622Z,44.66
2018-03-27T09:48:28.666Z,47.18
2018-03-27T09:49:28.633Z,45.34
2018-03-27T09:50:28.645Z,51.76
2018-03-27T09:51:31.303Z,47.94
2018-03-27T09:52:28.667Z,47.71
2018-03-27T09:53:28.665Z,49.01
2018-03-27T09:54:28.678Z,53.92
2018-03-27T09:55:28.686Z,51.94
2018-03-27T09:56:28.680Z,47.89
2018-03-27T09:57:28.689Z,52.69
2018-03-27T09:58:28.637Z,54.47
2018-03-27T09:59:28.613Z,52.30
2018-03-27T10:00:28.618Z,45.43
2018-03-27T10:01:28.618Z,47.57
2018-03-27T10:02:28.628Z,49.51
2018-03-27T10:03:28.634Z,45.34
2018-03-27T10:04:31.318Z,48.22
2018-03-27T10:05:28.657Z,45.67
2018-03-27T10:06:28.663Z,46.30
2018-03-27T10:07:28.673Z,46.65
2018-03-27T10:08:28.678Z,50.45
2018-03-27T10:09:28.682Z,46.21
2018-03-27T10:10:28.694Z,48.93
2018-03-27T10:11:32.473Z,50.20
2018-03-27T10:12:28.706Z,47.46
2018-03-27T10:13:28.606Z,49.25
2018-03-27T10:14:28.618Z,49.44
2018-03-27T10:15:28.626Z,48.05
2018-03-27T10:16:28.626Z,44.41
2018-03-27T10:17:28.629Z,45.32
2018-03-27T10:18:28.650Z,47.37
2018-03-27T10:19:28.650Z,47.42
2018-03-27T10:20:28.662Z,48.86
2018-03-27T10:21:28.678Z,47.43
2018-03-27T10:22:28.770Z,49.40
2018-03-27T10:23:28.680Z,47.98
2018-03-27T10:24:28.698Z,50.35
2018-03-27T10:25:28.698Z,48.07
2018-03-27T10:26:28.708Z,48.90
2018-03-27T10:27:28.725Z,47.56
2018-03-27T10:28:28.735Z,46.46
2018-03-27T10:29:28.617Z,47.17
2018-03-27T10:30:28.519Z,48.15
2018-03-27T10:31:28.646Z,48.22
2018-03-27T10:32:28.646Z,48.61
2018-03-27T10:33:28.649Z,49.03
2018-03-27T10:34:28.663Z,47.35
2018-03-27T10:35:28.768Z,51.11
2018-03-27T10:36:28.703Z,47.55
2018-03-27T10:37:28.686Z,50.19
2018-03-27T10:38:28.704Z,48.12
2018-03-27T10:39:31.350Z,50.23
2018-03-27T10:40:28.696Z,54.22
2018-03-27T10:41:28.711Z,50.74
2018-03-27T10:42:28.719Z,45.70
2018-03-27T10:43:28.616Z,54.11
2018-03-27T10:44:28.665Z,47.80
2018-03-27T10:45:28.687Z,48.39
2018-03-27T10:46:28.642Z,48.93
2018-03-27T10:47:28.650Z,48.23
2018-03-27T10:48:28.652Z,49.38
2018-03-27T10:49:28.666Z,49.07
2018-03-27T10:50:28.568Z,50.94
2018-03-27T10:51:28.475Z,47.85
2018-03-27T10:52:28.682Z,54.25
2018-03-27T10:53:28.720Z,50.54
2018-03-27T10:54:28.695Z,50.71
2018-03-27T10:55:28.713Z,52.81
2018-03-27T10:56:28.711Z,53.02
2018-03-27T10:57:28.737Z,52.16
2018-03-27T10:58:28.726Z,53.51
2018-03-27T10:59:28.743Z,48.27
2018-03-27T11:00:28.650Z,50.64
2018-03-27T11:01:28.648Z,54.17
2018-03-27T11:02:28.657Z,47.47
2018-03-27T11:03:28.566Z,54.08
2018-03-27T11:04:28.672Z,49.48
2018-03-27T11:05:28.679Z,46.67
2018-03-27T11:06:28.710Z,48.39
2018-03-27T11:07:28.699Z,49.61
2018-03-27T11:08:28.703Z,47.28
2018-03-27T11:09:28.712Z,47.51
2018-03-27T11:10:30.869Z,49.62
2018-03-27T11:11:29.855Z,49.22
2018-03-27T11:12:28.720Z,48.25
2018-03-27T11:13:28.743Z,49.89
2018-03-27T11:14:29.738Z,48.08
2018-03-27T11:15:29.639Z,49.53
2018-03-27T11:16:30.890Z,49.34
2018-03-27T11:17:29.345Z,48.16
2018-03-27T11:18:30.201Z,47.02
2018-03-27T11:19:29.668Z,45.48
2018-03-27T11:20:29.872Z,51.78
2018-03-27T11:21:30.017Z,49.41
2018-03-27T11:22:29.876Z,51.14
2018-03-27T11:23:29.848Z,48.47
2018-03-27T11:24:29.858Z,47.13
2018-03-27T11:25:29.751Z,53.68
2018-03-27T11:26:29.619Z,51.80
2018-03-27T11:27:29.985Z,48.31
2018-03-27T11:28:29.914Z,48.64
2018-03-27T11:29:30.008Z,50.14
2018-03-27T11:30:30.110Z,56.85
2018-03-27T11:31:30.177Z,50.69
2018-03-27T11:32:30.123Z,48.55
2018-03-27T11:33:29.811Z,50.40
2018-03-27T11:34:29.723Z,52.98
2018-03-27T11:35:29.797Z,54.78
2018-03-27T11:36:29.826Z,51.49
2018-03-27T11:37:29.665Z,55.32
2018-03-27T11:38:29.923Z,52.39
2018-03-27T11:39:29.862Z,53.01
2018-03-27T11:40:29.698Z,49.82
2018-03-27T11:41:29.826Z,51.63
2018-03-27T11:42:29.828Z,50.04
2018-03-27T11:43:29.751Z,50.35
2018-03-27T11:44:29.444Z,48.91
2018-03-27T11:45:29.933Z,54.33
2018-03-27T11:46:29.661Z,47.97
2018-03-27T11:47:29.559Z,49.48
2018-03-27T11:48:29.848Z,50.63
2018-03-27T11:49:29.756Z,49.37
2018-03-27T11:50:29.683Z,50.24
2018-03-27T11:51:30.130Z,49.13
2018-03-27T11:52:30.428Z,53.21
2018-03-27T11:53:30.055Z,51.38
2018-03-27T11:54:30.177Z,49.28
2018-03-27T11:55:30.044Z,53.04
2018-03-27T11:56:30.000Z,52.41
2018-03-27T11:57:29.896Z,50.97
2018-03-27T11:58:29.597Z,55.09
2018-03-27T11:59:29.483Z,53.67
2018-03-27T12:00:29.623Z,51.06
2018-03-27T12:01:29.746Z,49.31
2018-03-27T12:02:29.630Z,53.34
2018-03-27T12:03:29.547Z,56.63
2018-03-27T12:04:29.633Z,53.49
2018-03-27T12:05:29.434Z,51.62
2018-03-27T12:06:29.623Z,54.94
2018-03-27T12:07:29.743Z,56.50
2018-03-27T12:08:28.725Z,51.24
2018-03-27T12:09:28.529Z,49.99
2018-03-27T12:10:28.633Z,50.17
2018-03-27T12:11:29.773Z,50.09
2018-03-27T12:12:28.758Z,50.30
2018-03-27T12:13:28.768Z,57.74
2018-03-27T12:14:28.766Z,50.19
2018-03-27T12:15:28.674Z,53.25
2018-03-27T12:16:28.681Z,52.15
2018-03-27T12:17:28.691Z,51.26
2018-03-27T12:18:28.694Z,49.83
2018-03-27T12:19:28.702Z,54.53
2018-03-27T12:20:28.722Z,50.55
2018-03-27T12:21:28.718Z,50.10
2018-03-27T12:22:28.735Z,54.16
2018-03-27T12:23:28.742Z,52.88
2018-03-27T12:24:28.743Z,51.25
2018-03-27T12:25:28.747Z,52.87
2018-03-27T12:26:28.761Z,55.77
2018-03-27T12:27:28.763Z,55.33
2018-03-27T12:28:28.774Z,54.40
2018-03-27T12:29:28.785Z,50.06
2018-03-27T12:30:28.687Z,53.14
2018-03-27T12:31:28.694Z,57.23
2018-03-27T12:32:28.801Z,52.25
2018-03-27T12:33:28.714Z,54.32
2018-03-27T12:34:28.715Z,50.01
2018-03-27T12:35:28.722Z,48.21
2018-03-27T12:36:29.555Z,53.08
2018-03-27T12:37:29.808Z,50.00
2018-03-27T12:38:29.315Z,53.78
2018-03-27T12:39:29.642Z,54.30
2018-03-27T12:40:29.814Z,52.67
2018-03-27T12:41:29.785Z,51.59
2018-03-27T12:42:29.608Z,48.03
2018-03-27T12:43:29.875Z,49.36
2018-03-27T12:44:29.672Z,51.33
2018-03-27T12:45:29.727Z,48.84
2018-03-27T12:46:29.897Z,49.96
2018-03-27T12:47:28.697Z,48.46
2018-03-27T12:48:28.715Z,52.13
2018-03-27T12:49:28.331Z,51.99
2018-03-27T12:50:28.726Z,54.69
2018-03-27T12:51:28.743Z,48.70
2018-03-27T12:52:28.841Z,48.22
2018-03-27T12:53:28.755Z,53.49